Altamonte Springs, FL

11:05 PM EDT on May 22, 2015 (GMT -0400)
Rolling Hills | | Change Station
CLOSE
Current Station
Personal Weather Station
Location: Longwood, FL
Elevation: 121 ft
Nearby Weather Stations

Elev 121 ft 28.69 °N, 81.38 °W | Updated 2 minutes ago

Clear
Clear
76.5 °F
Feels Like 78 °F
N
0.0
Wind Variable Wind from NNE

Today
High -- | Low -- °F
--% Chance of Precip.
Yesterday
High -- | Low -- °F
Precip. -- in
6:31 AM 8:13 PM
Waxing Crescent, 26% visible
Pressure 30.20 in
Visibility 10.0 miles
Clouds Scattered Clouds 6500 ft
Heat Index 78 °F
Dew Point 69 °F
Humidity 78%
Rainfall 0.00 in
Snow Depth Not available.
UV 0 out of 12
Pollen 5.30 out of 12
Air Quality Not available.
Flu Activity Sporadic
METAR KORL 230253Z 08005KT 10SM SCT065 25/21 A3020 RMK AO2 LTG DSNT SW AND W SLP227 T02500206 51026

More Conditions Fewer Conditions

Pressure 30.20 in
Visibility 10.0 miles
Clouds Scattered Clouds 6500 ft
Heat Index 78 °F
Dew Point 69 °F
Humidity 78%
Rainfall 0.00 in
Snow Depth Not available.
UV 0 out of 12
Pollen 5.30 out of 12
Air Quality Not available.
Flu Activity Sporadic
METAR KORL 230253Z 08005KT 10SM SCT065 25/21 A3020 RMK AO2 LTG DSNT SW AND W SLP227 T02500206 51026

More Conditions Fewer Conditions

Nowcast | as of 10:20 PM EDT on May 22, 2015

Storms will be slow to diminish through midnight as they push slowly eastward from Southern Lake and eastern Polk County toward Florida's Turnpike. Additional showers and storms will be possible along an outflow boundary that extends from southern Osceola County eastward into Indian River County. A strong storm or two is still not out of the question through late evening...with frequent lightning...strong wind gusts...and heavy rainfall the main threats. Additional details...including graphics are available online at: http://www.Srh.NOAA.Gov/mlb/blog.Php

×

10-Day Weather Forecast

Almanac

Astronomy

May. 22, 2015 Rise Set
Actual Time
Civil Twilight
Nautical Twilight
Astronomical Twilight
Moon
Length of Visible Light
Length of Day
Tomorrow will be .
, % of the Moon is Illuminated

Today's Extremes

State Highs State Lows

Community

WunderPhotos

Upload Photos

1,823,374 photos uploaded!

WunderBlogs® & News

Nearby

Air Quality

  Air Quality AQ Index Pollutant
Not available.

Snow Depth

Station Depth Elevation

Earthquake Activity

City Distance Mag. Time & Date
Minimum magnitude displayed is 2.5.

Coastal Water Temperatures

Place Temperature

Stations

Nearby Weather Stations

Station Location Temp. Windchill Dew Point Humidity Wind Precip. Elev Updated Type